Bernice Lind — WDC8364 — position and weather

sailwx.info

Track history (hours):
 
Tides and Currents Weather Stations Pressure Air Temp Water Temp Dewpoint Dewpoint Depression Visibility Wind Speed Wind Dir Waves Ship Positions

Bernice Lind

Owner: Riverview Equipment Company, LLC, Petaluma, CA. More information available from US FCC via Universal Licensing System and Coast Guard Vessel Documentation Center.

Last reported at 2016-Aug-27 23:33 UTC. Time now 2016-Aug-28 00:34 UTC.
Position N 37°42' W 122°19'.

Length 20 m; draft 2.4 m.

Type: Towing. MMSI: 367085890.

Date/timePositionNaut miles runAvg speedWind from/ knotsBaromVisibWave heightAir tempDewpointWater temp
2016-Aug-27 23:33N 37°42' W 122°19'5 5.3
2016-Aug-27 22:33N 37°46' W 122°23'0 0.1
2016-Aug-27 21:33N 37°46' W 122°23'0 0.0
2016-Aug-27 20:34N 37°46' W 122°23'4 3.9
2016-Aug-27 19:33N 37°43' W 122°20'6 5.5
2016-Aug-27 18:33N 37°39' W 122°15'2 1.9
2016-Aug-27 17:33N 37°38' W 122°13'1 0.6
2016-Aug-27 16:32N 37°38' W 122°14'1 0.9
2016-Aug-27 15:33N 37°38' W 122°13'1 0.7
2016-Aug-27 14:33N 37°38' W 122°14'0 0.1
2016-Aug-27 13:27N 37°38' W 122°14'1 0.7
2016-Aug-27 12:33N 37°38' W 122°14'1 0.6
2016-Aug-27 11:32N 37°38' W 122°14'1 0.5
2016-Aug-27 10:33N 37°38' W 122°15'1 0.5
2016-Aug-27 09:31N 37°38' W 122°14'0 0.1
2016-Aug-27 08:33N 37°38' W 122°14'0 0.2
2016-Aug-27 07:33N 37°38' W 122°14'1 0.8
2016-Aug-27 06:31N 37°39' W 122°14'1 0.3
2016-Aug-27 04:30N 37°38' W 122°14'0 0.5
2016-Aug-27 03:31N 37°38' W 122°14'0 0.3
2016-Aug-27 02:32N 37°38' W 122°13'3 2.6
2016-Aug-27 01:33N 37°40' W 122°15'6 5.9
2016-Aug-27 00:33N 37°45' W 122°21'3 2.6
2016-Aug-26 23:33N 37°46' W 122°23'0 0.0
2016-Aug-26 22:33N 37°46' W 122°23'3 2.5
2016-Aug-26 21:33N 37°49' W 122°24'6 5.5
2016-Aug-26 20:33N 37°54' W 122°25'6 5.8
2016-Aug-26 19:34N 37°60' W 122°25'5 5.1
2016-Aug-26 18:33N 38°03' W 122°19'4 4.4
2016-Aug-26 17:33N 38°04' W 122°14'14 4.0
2016-Aug-26 14:04N 38°03' W 121°56'3 5.5
2016-Aug-26 13:33N 38°03' W 121°52'2 1.9
2016-Aug-26 12:33N 38°05' W 121°51'0 0.0
2016-Aug-25 11:10N 38°05' W 121°51'0 0.0
2016-Aug-25 08:29N 38°05' W 121°51'  
2016-Aug-19 20:33N 38°03' W 122°05'8 7.0
2016-Aug-19 19:29N 38°04' W 122°15'7 6.9
2016-Aug-19 18:24N 38°01' W 122°24'6 7.1
2016-Aug-19 17:33N 37°55' W 122°25'5 5.3
2016-Aug-19 16:33N 37°50' W 122°23'4 3.7
2016-Aug-19 15:33N 37°46' W 122°23'0 0.4
2016-Aug-19 14:33N 37°46' W 122°23'5 5.1
2016-Aug-19 13:33N 37°42' W 122°19'5 4.9
2016-Aug-19 12:33N 37°38' W 122°14'1 0.7
2016-Aug-19 11:33N 37°38' W 122°14'0 0.4
2016-Aug-19 10:33N 37°38' W 122°13'0 0.5
2016-Aug-19 09:33N 37°38' W 122°14'1 0.5
2016-Aug-19 08:33N 37°38' W 122°13'1 0.8
2016-Aug-19 07:21N 37°38' W 122°13'0 0.6
2016-Aug-19 06:33N 37°37' W 122°14'0 0.1
2016-Aug-19 05:33N 37°37' W 122°14'1 0.6
2016-Aug-19 04:33N 37°37' W 122°13'0 0.3
2016-Aug-19 03:33N 37°38' W 122°14'1 0.8
2016-Aug-19 02:33N 37°38' W 122°14'0 0.4
2016-Aug-19 01:33N 37°39' W 122°14'1 0.8
2016-Aug-19 00:33N 37°39' W 122°15'1 0.6
2016-Aug-18 23:31N 37°39' W 122°15'3 2.5
2016-Aug-18 22:32N 37°37' W 122°13'1 0.7
2016-Aug-18 21:33N 37°38' W 122°14'1 1.2
2016-Aug-18 20:33N 37°38' W 122°15'2 1.7
2016-Aug-18 19:33N 37°39' W 122°17'4 4.2
2016-Aug-18 18:33N 37°43' W 122°19'4 4.5
2016-Aug-18 17:33N 37°46' W 122°23'0 0.0
2016-Aug-18 16:33N 37°46' W 122°23'2 2.5
2016-Aug-18 15:34N 37°44' W 122°21'5 4.5
2016-Aug-18 14:31N 37°41' W 122°17'4 4.2
2016-Aug-18 13:33N 37°38' W 122°14'1 0.7
2016-Aug-18 12:30N 37°39' W 122°14'0 0.2
2016-Aug-18 11:29N 37°39' W 122°14'1 0.9
2016-Aug-18 10:29N 37°39' W 122°15'1 0.8
2016-Aug-18 09:33N 37°39' W 122°14'1 0.5
2016-Aug-18 08:29N 37°38' W 122°14'1 0.8
2016-Aug-18 07:33N 37°38' W 122°13'1 0.8
2016-Aug-18 06:33N 37°38' W 122°14'1 0.7
2016-Aug-18 05:32N 37°38' W 122°13'1 0.6
2016-Aug-18 04:33N 37°38' W 122°14'0 0.3
2016-Aug-18 03:33N 37°38' W 122°13'0 0.4
2016-Aug-18 02:33N 37°38' W 122°14'1 0.5
2016-Aug-18 01:33N 37°38' W 122°13'1 1.2
2016-Aug-18 00:32N 37°38' W 122°15'  
Track history (hours):
 
Tides and Currents Weather Stations Pressure Air Temp Water Temp Dewpoint Dewpoint Depression Visibility Wind Speed Wind Dir Waves Ship Positions

Bernice Lind

Owner: Riverview Equipment Company, LLC, Petaluma, CA. More information available from US FCC via Universal Licensing System and Coast Guard Vessel Documentation Center.

Last reported at 2016-Aug-27 23:33 UTC. Time now 2016-Aug-28 00:34 UTC.
Position N 37°42' W 122°19'.

Length 20 m; draft 2.4 m.

Type: Towing. MMSI: 367085890.

Date/timePositionNaut miles runAvg speedWind from/ knotsBaromVisibWave heightAir tempDewpointWater temp
2016-Aug-27 23:33N 37°42' W 122°19'5 5.3
2016-Aug-27 22:33N 37°46' W 122°23'0 0.1
2016-Aug-27 21:33N 37°46' W 122°23'0 0.0
2016-Aug-27 20:34N 37°46' W 122°23'4 3.9
2016-Aug-27 19:33N 37°43' W 122°20'6 5.5
2016-Aug-27 18:33N 37°39' W 122°15'2 1.9
2016-Aug-27 17:33N 37°38' W 122°13'1 0.6
2016-Aug-27 16:32N 37°38' W 122°14'1 0.9
2016-Aug-27 15:33N 37°38' W 122°13'1 0.7
2016-Aug-27 14:33N 37°38' W 122°14'0 0.1
2016-Aug-27 13:27N 37°38' W 122°14'1 0.7
2016-Aug-27 12:33N 37°38' W 122°14'1 0.6
2016-Aug-27 11:32N 37°38' W 122°14'1 0.5
2016-Aug-27 10:33N 37°38' W 122°15'1 0.5
2016-Aug-27 09:31N 37°38' W 122°14'0 0.1
2016-Aug-27 08:33N 37°38' W 122°14'0 0.2
2016-Aug-27 07:33N 37°38' W 122°14'1 0.8
2016-Aug-27 06:31N 37°39' W 122°14'1 0.3
2016-Aug-27 04:30N 37°38' W 122°14'0 0.5
2016-Aug-27 03:31N 37°38' W 122°14'0 0.3
2016-Aug-27 02:32N 37°38' W 122°13'3 2.6
2016-Aug-27 01:33N 37°40' W 122°15'6 5.9
2016-Aug-27 00:33N 37°45' W 122°21'3 2.6
2016-Aug-26 23:33N 37°46' W 122°23'0 0.0
2016-Aug-26 22:33N 37°46' W 122°23'3 2.5
2016-Aug-26 21:33N 37°49' W 122°24'6 5.5
2016-Aug-26 20:33N 37°54' W 122°25'6 5.8
2016-Aug-26 19:34N 37°60' W 122°25'5 5.1
2016-Aug-26 18:33N 38°03' W 122°19'4 4.4
2016-Aug-26 17:33N 38°04' W 122°14'14 4.0
2016-Aug-26 14:04N 38°03' W 121°56'3 5.5
2016-Aug-26 13:33N 38°03' W 121°52'2 1.9
2016-Aug-26 12:33N 38°05' W 121°51'0 0.0
2016-Aug-25 11:10N 38°05' W 121°51'0 0.0
2016-Aug-25 08:29N 38°05' W 121°51'  
2016-Aug-19 20:33N 38°03' W 122°05'8 7.0
2016-Aug-19 19:29N 38°04' W 122°15'7 6.9
2016-Aug-19 18:24N 38°01' W 122°24'6 7.1
2016-Aug-19 17:33N 37°55' W 122°25'5 5.3
2016-Aug-19 16:33N 37°50' W 122°23'4 3.7
2016-Aug-19 15:33N 37°46' W 122°23'0 0.4
2016-Aug-19 14:33N 37°46' W 122°23'5 5.1
2016-Aug-19 13:33N 37°42' W 122°19'5 4.9
2016-Aug-19 12:33N 37°38' W 122°14'1 0.7
2016-Aug-19 11:33N 37°38' W 122°14'0 0.4
2016-Aug-19 10:33N 37°38' W 122°13'0 0.5
2016-Aug-19 09:33N 37°38' W 122°14'1 0.5
2016-Aug-19 08:33N 37°38' W 122°13'1 0.8
2016-Aug-19 07:21N 37°38' W 122°13'0 0.6
2016-Aug-19 06:33N 37°37' W 122°14'0 0.1
2016-Aug-19 05:33N 37°37' W 122°14'1 0.6
2016-Aug-19 04:33N 37°37' W 122°13'0 0.3
2016-Aug-19 03:33N 37°38' W 122°14'1 0.8
2016-Aug-19 02:33N 37°38' W 122°14'0 0.4
2016-Aug-19 01:33N 37°39' W 122°14'1 0.8
2016-Aug-19 00:33N 37°39' W 122°15'1 0.6
2016-Aug-18 23:31N 37°39' W 122°15'3 2.5
2016-Aug-18 22:32N 37°37' W 122°13'1 0.7
2016-Aug-18 21:33N 37°38' W 122°14'1 1.2
2016-Aug-18 20:33N 37°38' W 122°15'2 1.7
2016-Aug-18 19:33N 37°39' W 122°17'4 4.2
2016-Aug-18 18:33N 37°43' W 122°19'4 4.5
2016-Aug-18 17:33N 37°46' W 122°23'0 0.0
2016-Aug-18 16:33N 37°46' W 122°23'2 2.5
2016-Aug-18 15:34N 37°44' W 122°21'5 4.5
2016-Aug-18 14:31N 37°41' W 122°17'4 4.2
2016-Aug-18 13:33N 37°38' W 122°14'1 0.7
2016-Aug-18 12:30N 37°39' W 122°14'0 0.2
2016-Aug-18 11:29N 37°39' W 122°14'1 0.9
2016-Aug-18 10:29N 37°39' W 122°15'1 0.8
2016-Aug-18 09:33N 37°39' W 122°14'1 0.5
2016-Aug-18 08:29N 37°38' W 122°14'1 0.8
2016-Aug-18 07:33N 37°38' W 122°13'1 0.8
2016-Aug-18 06:33N 37°38' W 122°14'1 0.7
2016-Aug-18 05:32N 37°38' W 122°13'1 0.6
2016-Aug-18 04:33N 37°38' W 122°14'0 0.3
2016-Aug-18 03:33N 37°38' W 122°13'0 0.4
2016-Aug-18 02:33N 37°38' W 122°14'1 0.5
2016-Aug-18 01:33N 37°38' W 122°13'1 1.2
2016-Aug-18 00:32N 37°38' W 122°15'  

Dump ship's entire track history